createdAt,value
2018-02-19T00:00:10.209Z,0.00
2018-02-19T00:01:10.212Z,0.00
2018-02-19T00:02:10.230Z,0.00
2018-02-19T00:03:10.240Z,0.00
2018-02-19T00:04:10.256Z,0.00
2018-02-19T00:05:10.263Z,0.00
2018-02-19T00:06:10.278Z,0.00
2018-02-19T00:07:10.289Z,0.00
2018-02-19T00:08:10.298Z,0.00
2018-02-19T00:09:10.311Z,0.00
2018-02-19T00:10:10.322Z,0.00
2018-02-19T00:11:10.332Z,0.00
2018-02-19T00:12:10.351Z,0.00
2018-02-19T00:13:10.365Z,0.00
2018-02-19T00:14:10.366Z,0.00
2018-02-19T00:15:10.378Z,0.00
2018-02-19T00:16:10.394Z,0.00
2018-02-19T00:17:10.405Z,0.00
2018-02-19T00:18:10.415Z,0.00
2018-02-19T00:19:10.428Z,0.00
2018-02-19T00:20:10.440Z,0.00
2018-02-19T00:21:10.451Z,0.00
2018-02-19T00:22:10.461Z,0.00
2018-02-19T00:23:10.477Z,0.00
2018-02-19T00:24:10.490Z,0.00
2018-02-19T00:25:10.498Z,0.00
2018-02-19T00:26:10.510Z,0.00
2018-02-19T00:27:10.523Z,0.00
2018-02-19T00:28:10.540Z,0.00
2018-02-19T00:29:10.546Z,0.00
2018-02-19T00:30:10.561Z,0.00
2018-02-19T00:31:10.573Z,0.00
2018-02-19T00:32:10.584Z,0.00
2018-02-19T00:33:10.604Z,0.00
2018-02-19T00:34:10.606Z,0.00
2018-02-19T00:35:10.621Z,0.00
2018-02-19T00:36:10.632Z,0.00
2018-02-19T00:37:10.642Z,0.00
2018-02-19T00:38:10.656Z,0.00
2018-02-19T00:39:10.666Z,0.00
2018-02-19T00:40:10.682Z,0.00
2018-02-19T00:41:10.688Z,0.00
2018-02-19T00:42:10.701Z,0.00
2018-02-19T00:43:10.714Z,0.00
2018-02-19T00:44:10.724Z,0.00
2018-02-19T00:45:10.734Z,0.00
2018-02-19T00:46:10.747Z,0.00
2018-02-19T00:47:10.761Z,0.00
2018-02-19T00:48:10.777Z,0.00
2018-02-19T00:49:10.783Z,0.00
2018-02-19T00:50:10.796Z,0.00
2018-02-19T00:51:10.806Z,0.00
2018-02-19T00:52:10.824Z,0.00
2018-02-19T00:53:10.832Z,0.00
2018-02-19T00:54:10.883Z,0.00
2018-02-19T00:55:10.854Z,0.00
2018-02-19T00:56:10.869Z,0.00
2018-02-19T00:57:10.878Z,0.00
2018-02-19T00:58:10.889Z,0.00
2018-02-19T00:59:10.951Z,0.00
2018-02-19T01:00:10.914Z,0.00
2018-02-19T01:01:10.924Z,0.00
2018-02-19T01:02:10.939Z,0.00
2018-02-19T01:03:10.949Z,0.00
2018-02-19T01:04:10.962Z,0.00
2018-02-19T01:05:10.972Z,0.00
2018-02-19T01:06:10.984Z,0.00
2018-02-19T01:07:10.996Z,0.00
2018-02-19T01:08:11.013Z,0.00
2018-02-19T01:09:11.019Z,0.00
2018-02-19T01:10:11.050Z,0.00
2018-02-19T01:11:11.046Z,0.00
2018-02-19T01:12:11.060Z,0.00
2018-02-19T01:13:11.065Z,0.00
2018-02-19T01:14:11.077Z,0.00
2018-02-19T01:15:11.090Z,0.00
2018-02-19T01:16:11.105Z,0.00
2018-02-19T01:17:11.116Z,0.00
2018-02-19T01:18:11.131Z,0.00
2018-02-19T01:19:11.135Z,0.00
2018-02-19T01:20:11.147Z,0.00
2018-02-19T01:21:11.161Z,0.00
2018-02-19T01:22:11.172Z,0.00
2018-02-19T01:23:11.183Z,0.00
2018-02-19T01:24:11.193Z,0.00
2018-02-19T01:25:11.204Z,0.00
2018-02-19T01:26:11.219Z,0.00
2018-02-19T01:27:11.231Z,0.00
2018-02-19T01:28:11.245Z,0.00
2018-02-19T01:29:11.255Z,0.00
2018-02-19T01:30:11.272Z,0.00
2018-02-19T01:31:11.278Z,0.00
2018-02-19T01:32:11.290Z,0.00
2018-02-19T01:33:11.298Z,0.00
2018-02-19T01:34:11.310Z,0.00
2018-02-19T01:35:11.324Z,0.00
2018-02-19T01:36:11.335Z,0.00
2018-02-19T01:37:11.345Z,0.00
2018-02-19T01:38:11.358Z,0.00
2018-02-19T01:39:11.368Z,0.00
2018-02-19T01:40:11.383Z,0.00
2018-02-19T01:41:11.390Z,0.00
2018-02-19T01:42:11.404Z,0.00
2018-02-19T01:43:11.414Z,0.00
2018-02-19T01:44:11.430Z,0.00
2018-02-19T01:45:11.442Z,0.00
2018-02-19T01:46:11.452Z,0.00
2018-02-19T01:47:11.462Z,0.00
2018-02-19T01:48:11.475Z,0.00
2018-02-19T01:49:11.486Z,0.00
2018-02-19T01:50:11.498Z,0.00
2018-02-19T01:51:11.508Z,0.00
2018-02-19T01:52:11.523Z,0.00
2018-02-19T01:53:11.533Z,0.00
2018-02-19T01:54:11.545Z,0.00
2018-02-19T01:55:11.555Z,0.00
2018-02-19T01:56:11.568Z,0.00
2018-02-19T01:57:11.587Z,0.00
2018-02-19T01:58:11.595Z,0.00
2018-02-19T01:59:11.603Z,0.00
2018-02-19T02:00:11.616Z,0.00
2018-02-19T02:01:11.628Z,0.00
2018-02-19T02:02:11.640Z,0.00
2018-02-19T02:03:11.655Z,0.00
2018-02-19T02:04:11.664Z,0.00
2018-02-19T02:05:11.674Z,0.00
2018-02-19T02:06:11.684Z,0.00
2018-02-19T02:07:11.695Z,0.00
2018-02-19T02:08:11.709Z,0.00
2018-02-19T02:09:11.727Z,0.00
2018-02-19T02:10:11.732Z,0.00
2018-02-19T02:11:11.747Z,0.00
2018-02-19T02:12:11.757Z,0.00
2018-02-19T02:13:11.767Z,0.00
2018-02-19T02:14:11.783Z,0.00
2018-02-19T02:15:11.789Z,0.00
2018-02-19T02:16:11.801Z,0.00
2018-02-19T02:17:11.814Z,0.00
2018-02-19T02:18:11.829Z,0.00
2018-02-19T02:19:11.840Z,0.00
2018-02-19T02:20:11.850Z,0.00
2018-02-19T02:21:11.914Z,0.00
2018-02-19T02:22:11.875Z,0.00
2018-02-19T02:23:11.884Z,0.00
2018-02-19T02:24:11.897Z,0.00
2018-02-19T02:25:11.906Z,0.00
2018-02-19T02:26:11.916Z,0.00
2018-02-19T02:27:11.930Z,0.00
2018-02-19T02:28:11.943Z,0.00
2018-02-19T02:29:11.954Z,0.00
2018-02-19T02:30:11.964Z,0.00
2018-02-19T02:31:11.982Z,0.00
2018-02-19T02:32:11.990Z,0.00
2018-02-19T02:33:12.001Z,0.00
2018-02-19T02:34:12.024Z,0.00
2018-02-19T02:35:12.079Z,0.00
2018-02-19T02:36:12.193Z,0.00
2018-02-19T02:37:12.051Z,0.00
2018-02-19T02:38:12.063Z,0.00
2018-02-19T02:39:12.074Z,0.00
2018-02-19T02:40:12.085Z,0.00
2018-02-19T02:41:12.093Z,0.00
2018-02-19T02:42:12.116Z,0.00
2018-02-19T02:43:12.116Z,0.00
2018-02-19T02:44:12.131Z,0.00
2018-02-19T02:45:12.141Z,0.00
2018-02-19T02:46:12.155Z,0.00
2018-02-19T02:47:12.166Z,0.00
2018-02-19T02:48:12.179Z,0.00
2018-02-19T02:49:12.190Z,0.00
2018-02-19T02:50:12.197Z,0.00
2018-02-19T02:51:12.212Z,0.00
2018-02-19T02:52:12.228Z,0.00
2018-02-19T02:53:12.253Z,0.00
2018-02-19T02:54:12.244Z,0.00
2018-02-19T02:55:12.258Z,0.00
2018-02-19T02:56:12.275Z,0.00
2018-02-19T02:57:12.281Z,0.00
2018-02-19T02:58:12.291Z,0.00
2018-02-19T02:59:12.304Z,0.00
2018-02-19T03:00:12.317Z,0.00
2018-02-19T03:01:12.328Z,0.00
2018-02-19T03:02:12.339Z,0.00
2018-02-19T03:03:12.354Z,0.00
2018-02-19T03:04:12.364Z,0.00
2018-02-19T03:05:12.375Z,0.00
2018-02-19T03:06:12.390Z,0.00
2018-02-19T03:07:12.399Z,0.00
2018-02-19T03:08:12.411Z,0.00
2018-02-19T03:09:12.422Z,0.00
2018-02-19T03:10:12.438Z,0.00
2018-02-19T03:11:12.448Z,0.00
2018-02-19T03:12:12.456Z,0.00
2018-02-19T03:13:12.472Z,0.00
2018-02-19T03:14:12.482Z,0.00
2018-02-19T03:15:12.496Z,0.00
2018-02-19T03:16:12.510Z,0.00
2018-02-19T03:17:12.517Z,0.00
2018-02-19T03:18:12.529Z,0.00
2018-02-19T03:19:12.541Z,0.00
2018-02-19T03:20:12.551Z,0.00
2018-02-19T03:21:12.566Z,0.00
2018-02-19T03:22:12.575Z,0.00
2018-02-19T03:23:12.588Z,0.00
2018-02-19T03:24:12.599Z,0.00
2018-02-19T03:25:12.614Z,0.00
2018-02-19T03:26:12.622Z,0.00
2018-02-19T03:27:12.635Z,0.00
2018-02-19T03:28:12.649Z,0.00
2018-02-19T03:29:12.660Z,0.00
2018-02-19T03:30:12.673Z,0.00
2018-02-19T03:31:12.687Z,0.00
2018-02-19T03:32:12.693Z,0.00
2018-02-19T03:33:12.709Z,0.00
2018-02-19T03:34:12.717Z,0.00
2018-02-19T03:35:12.729Z,0.00
2018-02-19T03:36:12.742Z,0.00
2018-02-19T03:37:12.772Z,0.00
2018-02-19T03:38:12.767Z,0.00
2018-02-19T03:39:12.776Z,0.00
2018-02-19T03:40:12.789Z,0.00
2018-02-19T03:41:12.801Z,0.00
2018-02-19T03:42:12.813Z,0.00
2018-02-19T03:43:12.822Z,0.00
2018-02-19T03:44:12.838Z,0.00
2018-02-19T03:45:12.849Z,0.00
2018-02-19T03:46:12.863Z,0.00
2018-02-19T03:47:12.868Z,0.00
2018-02-19T03:48:12.884Z,0.00
2018-02-19T03:49:12.894Z,0.00
2018-02-19T03:50:12.906Z,0.00
2018-02-19T03:51:12.918Z,0.00
2018-02-19T03:52:12.933Z,0.00
2018-02-19T03:53:12.943Z,0.00
2018-02-19T03:54:12.958Z,0.00
2018-02-19T03:55:12.966Z,0.00
2018-02-19T03:56:12.977Z,0.00
2018-02-19T03:57:12.987Z,0.00
2018-02-19T03:58:13.001Z,0.00
2018-02-19T03:59:13.074Z,0.00
2018-02-19T04:00:13.026Z,0.00
2018-02-19T04:01:13.035Z,0.00
2018-02-19T04:02:13.050Z,0.00
2018-02-19T04:03:13.065Z,0.00
2018-02-19T04:04:13.083Z,0.00
2018-02-19T04:05:13.083Z,0.00
2018-02-19T04:06:13.093Z,0.00
2018-02-19T04:07:13.109Z,0.00
2018-02-19T04:08:13.117Z,0.00
2018-02-19T04:09:13.129Z,0.00
2018-02-19T04:10:13.140Z,0.00
2018-02-19T04:11:13.157Z,0.00
2018-02-19T04:12:13.166Z,0.00
2018-02-19T04:13:13.175Z,0.00
2018-02-19T04:14:13.191Z,0.00
2018-02-19T04:15:13.200Z,0.00
2018-02-19T04:16:13.213Z,0.00
2018-02-19T04:17:13.222Z,0.00
2018-02-19T04:18:13.238Z,0.00
2018-02-19T04:19:13.250Z,0.00
2018-02-19T04:20:13.259Z,0.00
2018-02-19T04:21:13.272Z,0.00
2018-02-19T04:22:13.282Z,0.00
2018-02-19T04:23:13.305Z,0.00
2018-02-19T04:24:13.302Z,0.00
2018-02-19T04:25:13.317Z,0.00
2018-02-19T04:26:13.330Z,0.00
2018-02-19T04:27:13.342Z,0.00
2018-02-19T04:28:13.352Z,0.00
2018-02-19T04:29:13.367Z,0.00
2018-02-19T04:30:13.380Z,0.00
2018-02-19T04:31:13.388Z,0.00
2018-02-19T04:32:13.404Z,0.00
2018-02-19T04:33:13.407Z,0.00
2018-02-19T04:34:13.419Z,0.00
2018-02-19T04:35:13.438Z,0.00
2018-02-19T04:36:13.444Z,0.00
2018-02-19T04:37:13.462Z,0.00
2018-02-19T04:38:13.470Z,0.00
2018-02-19T04:39:13.488Z,0.00
2018-02-19T04:40:13.493Z,0.00
2018-02-19T04:41:13.504Z,0.00
2018-02-19T04:42:13.571Z,0.00
2018-02-19T04:43:13.527Z,0.00
2018-02-19T04:44:13.540Z,0.00
2018-02-19T04:45:13.553Z,0.00
2018-02-19T04:46:13.565Z,0.00
2018-02-19T04:47:13.575Z,0.00
2018-02-19T04:48:13.589Z,0.00
2018-02-19T04:49:13.599Z,0.00
2018-02-19T04:50:13.611Z,0.00
2018-02-19T04:51:13.625Z,0.00
2018-02-19T04:52:13.634Z,0.00
2018-02-19T04:53:13.646Z,0.00
2018-02-19T04:54:13.660Z,0.00
2018-02-19T04:55:13.669Z,0.00
2018-02-19T04:56:13.683Z,0.00
2018-02-19T04:57:13.701Z,0.00
2018-02-19T04:58:13.704Z,0.00
2018-02-19T04:59:13.719Z,0.00
2018-02-19T05:00:13.730Z,0.00
2018-02-19T05:01:13.738Z,0.00
2018-02-19T05:02:13.751Z,0.00
2018-02-19T05:03:13.766Z,0.00
2018-02-19T05:04:13.776Z,0.00
2018-02-19T05:05:13.791Z,0.00
2018-02-19T05:06:13.803Z,0.00
2018-02-19T05:07:13.810Z,0.00
2018-02-19T05:08:13.827Z,0.00
2018-02-19T05:09:13.837Z,0.00
2018-02-19T05:10:13.849Z,0.00
2018-02-19T05:11:13.860Z,0.00
2018-02-19T05:12:13.873Z,0.00
2018-02-19T05:13:13.888Z,0.00
2018-02-19T05:14:13.896Z,0.00
2018-02-19T05:15:13.908Z,0.00
2018-02-19T05:16:13.924Z,0.00
2018-02-19T05:17:13.930Z,0.00
2018-02-19T05:18:13.941Z,0.00
2018-02-19T05:19:13.960Z,0.00
2018-02-19T05:20:13.968Z,0.00
2018-02-19T05:21:13.979Z,0.00
2018-02-19T05:22:13.992Z,0.00
2018-02-19T05:23:14.000Z,0.00
2018-02-19T05:24:14.013Z,0.00
2018-02-19T05:25:14.023Z,0.00
2018-02-19T05:26:14.039Z,0.00
2018-02-19T05:27:14.072Z,0.00
2018-02-19T05:28:14.061Z,0.00
2018-02-19T05:29:14.071Z,0.00
2018-02-19T05:30:14.084Z,0.00
2018-02-19T05:31:14.186Z,0.00
2018-02-19T05:32:14.107Z,0.00
2018-02-19T05:33:14.120Z,0.00
2018-02-19T05:34:14.132Z,0.00
2018-02-19T05:35:14.145Z,0.00
2018-02-19T05:36:14.155Z,0.00
2018-02-19T05:37:14.166Z,0.00
2018-02-19T05:38:14.185Z,0.00
2018-02-19T05:39:14.191Z,0.00
2018-02-19T05:40:14.204Z,0.00
2018-02-19T05:41:14.212Z,0.00
2018-02-19T05:42:14.227Z,0.00
2018-02-19T05:43:14.241Z,0.00
2018-02-19T05:44:14.254Z,0.00
2018-02-19T05:45:14.263Z,0.00
2018-02-19T05:46:14.275Z,0.00
2018-02-19T05:47:14.287Z,0.00
2018-02-19T05:48:14.299Z,0.00
2018-02-19T05:49:14.311Z,0.00
2018-02-19T05:50:14.321Z,0.00
2018-02-19T05:51:14.335Z,0.00
2018-02-19T05:52:14.345Z,0.00
2018-02-19T05:53:14.357Z,0.00
2018-02-19T05:54:14.371Z,0.00
2018-02-19T05:55:14.383Z,4.00
2018-02-19T05:56:14.394Z,4.00
2018-02-19T05:57:14.407Z,4.00
2018-02-19T05:58:14.418Z,4.00
2018-02-19T05:59:14.428Z,0.00
2018-02-19T06:00:14.441Z,4.00
2018-02-19T06:01:14.454Z,4.00
2018-02-19T06:02:14.464Z,4.00
2018-02-19T06:03:14.480Z,4.00
2018-02-19T06:04:14.487Z,8.00
2018-02-19T06:05:14.506Z,4.00
2018-02-19T06:06:14.513Z,8.00
2018-02-19T06:07:14.524Z,8.00
2018-02-19T06:08:14.537Z,8.00
2018-02-19T06:09:14.551Z,12.00
2018-02-19T06:10:14.565Z,12.00
2018-02-19T06:11:14.574Z,12.00
2018-02-19T06:12:14.592Z,16.00
2018-02-19T06:13:14.601Z,20.00
2018-02-19T06:14:14.605Z,24.00
2018-02-19T06:15:14.618Z,24.00
2018-02-19T06:16:14.630Z,28.00
2018-02-19T06:17:14.645Z,36.00
2018-02-19T06:18:14.655Z,36.00
2018-02-19T06:19:14.673Z,44.00
2018-02-19T06:20:14.681Z,52.00
2018-02-19T06:21:14.696Z,60.00
2018-02-19T06:22:14.703Z,64.00
2018-02-19T06:23:14.718Z,76.00
2018-02-19T06:24:14.730Z,84.00
2018-02-19T06:25:14.739Z,92.00
2018-02-19T06:26:14.753Z,100.00
2018-02-19T06:27:14.768Z,112.00
2018-02-19T06:28:14.778Z,120.00
2018-02-19T06:29:14.795Z,132.00
2018-02-19T06:30:14.801Z,144.00
2018-02-19T06:31:14.815Z,156.00
2018-02-19T06:32:14.827Z,168.00
2018-02-19T06:33:14.838Z,180.00
2018-02-19T06:34:14.851Z,196.00
2018-02-19T06:35:14.859Z,208.00
2018-02-19T06:36:14.873Z,224.00
2018-02-19T06:37:14.883Z,236.00
2018-02-19T06:38:14.898Z,252.00
2018-02-19T06:39:14.910Z,272.00
2018-02-19T06:40:14.922Z,288.00
2018-02-19T06:41:14.936Z,312.00
2018-02-19T06:42:14.945Z,336.00
2018-02-19T06:43:14.960Z,368.00
2018-02-19T06:44:14.970Z,396.00
2018-02-19T06:45:14.983Z,436.00
2018-02-19T06:46:14.998Z,480.00
2018-02-19T06:47:15.005Z,524.00
2018-02-19T06:48:15.020Z,568.00
2018-02-19T06:49:15.030Z,616.00
2018-02-19T06:50:15.044Z,660.00
2018-02-19T06:51:15.057Z,700.00
2018-02-19T06:52:15.080Z,732.00
2018-02-19T06:53:15.078Z,760.00
2018-02-19T06:54:15.093Z,780.00
2018-02-19T06:55:15.103Z,800.00
2018-02-19T06:56:15.117Z,816.00
2018-02-19T06:57:15.127Z,836.00
2018-02-19T06:58:15.141Z,864.00
2018-02-19T06:59:15.152Z,888.00
2018-02-19T07:00:15.174Z,920.00
2018-02-19T07:01:15.174Z,956.00
2018-02-19T07:02:15.187Z,996.00
2018-02-19T07:03:15.201Z,1036.00
2018-02-19T07:04:15.211Z,1080.00
2018-02-19T07:05:15.226Z,1116.00
2018-02-19T07:06:15.241Z,1156.00
2018-02-19T07:07:15.251Z,1184.00
2018-02-19T07:08:15.271Z,1208.00
2018-02-19T07:09:15.275Z,1228.00
2018-02-19T07:10:15.289Z,1248.00
2018-02-19T07:11:15.301Z,1264.00
2018-02-19T07:12:15.319Z,1272.00
2018-02-19T07:13:15.327Z,1288.00
2018-02-19T07:14:15.342Z,1304.00
2018-02-19T07:15:15.353Z,1328.00
2018-02-19T07:16:15.366Z,1360.00
2018-02-19T07:17:15.449Z,1396.00
2018-02-19T07:18:15.388Z,1448.00
2018-02-19T07:19:15.405Z,1512.00
2018-02-19T07:20:15.415Z,1592.00
2018-02-19T07:21:15.438Z,1680.00
2018-02-19T07:22:15.440Z,1776.00
2018-02-19T07:23:15.456Z,1884.00
2018-02-19T07:24:15.464Z,2000.00
2018-02-19T07:25:15.482Z,2116.00
2018-02-19T07:26:15.490Z,2228.00
2018-02-19T07:27:15.501Z,2336.00
2018-02-19T07:28:15.515Z,2440.00
2018-02-19T07:29:15.530Z,2536.00
2018-02-19T07:30:15.541Z,2632.00
2018-02-19T07:31:15.554Z,2712.00
2018-02-19T07:32:15.566Z,2792.00
2018-02-19T07:33:15.594Z,2860.00
2018-02-19T07:34:15.590Z,2928.00
2018-02-19T07:35:15.605Z,2980.00
2018-02-19T07:36:15.613Z,3024.00
2018-02-19T07:37:15.627Z,3060.00
2018-02-19T07:38:15.640Z,3092.00
2018-02-19T07:39:15.654Z,3128.00
2018-02-19T07:40:15.667Z,3160.00
2018-02-19T07:41:15.678Z,3188.00
2018-02-19T07:42:15.693Z,3232.00
2018-02-19T07:43:15.705Z,3280.00
2018-02-19T07:44:15.779Z,3328.00
2018-02-19T07:45:15.729Z,3372.00
2018-02-19T07:46:15.745Z,3428.00
2018-02-19T07:47:15.757Z,3476.00
2018-02-19T07:48:15.768Z,3532.00
2018-02-19T07:49:15.777Z,3592.00
2018-02-19T07:50:15.817Z,3672.00
2018-02-19T07:51:15.811Z,3744.00
2018-02-19T07:52:15.816Z,3776.00
2018-02-19T07:53:15.837Z,3804.00
2018-02-19T07:54:15.843Z,3844.00
2018-02-19T07:55:15.857Z,3892.00
2018-02-19T07:56:15.871Z,3960.00
2018-02-19T07:57:15.886Z,4036.00
2018-02-19T07:58:15.894Z,4144.00
2018-02-19T07:59:15.907Z,4264.00
2018-02-19T08:00:15.955Z,4396.00
2018-02-19T08:01:15.934Z,4528.00
2018-02-19T08:02:15.946Z,4652.00
2018-02-19T08:03:15.959Z,4772.00
2018-02-19T08:04:15.971Z,4932.00
2018-02-19T08:05:15.986Z,4988.00
2018-02-19T08:06:15.997Z,5000.00
2018-02-19T08:07:16.013Z,5028.00
2018-02-19T08:08:16.022Z,5056.00
2018-02-19T08:09:16.032Z,5080.00
2018-02-19T08:10:16.048Z,5104.00
2018-02-19T08:11:16.059Z,5120.00
2018-02-19T08:12:16.074Z,5156.00
2018-02-19T08:13:16.085Z,5208.00
2018-02-19T08:14:16.097Z,5264.00
2018-02-19T08:15:16.110Z,5344.00
2018-02-19T08:16:16.137Z,5520.00
2018-02-19T08:17:16.141Z,5784.00
2018-02-19T08:18:16.151Z,5840.00
2018-02-19T08:19:16.161Z,6124.00
2018-02-19T08:20:16.176Z,6112.00
2018-02-19T08:21:16.189Z,6224.00
2018-02-19T08:22:16.203Z,6452.00
2018-02-19T08:23:16.211Z,6820.00
2018-02-19T08:24:16.227Z,6928.00
2018-02-19T08:25:16.239Z,6940.00
2018-02-19T08:26:16.251Z,7232.00
2018-02-19T08:27:16.263Z,8144.00
2018-02-19T08:28:16.281Z,10076.00
2018-02-19T08:29:16.291Z,7892.00
2018-02-19T08:30:16.305Z,8348.00
2018-02-19T08:31:16.319Z,9020.00
2018-02-19T08:32:16.330Z,8296.00
2018-02-19T08:33:16.343Z,8036.00
2018-02-19T08:34:16.356Z,8200.00
2018-02-19T08:35:16.372Z,8992.00
2018-02-19T08:36:16.384Z,10216.00
2018-02-19T08:37:16.401Z,10212.00
2018-02-19T08:38:16.408Z,10232.00
2018-02-19T08:39:16.426Z,10224.00
2018-02-19T08:40:16.439Z,10196.00
2018-02-19T08:41:16.449Z,9360.00
2018-02-19T08:42:16.465Z,8808.00
2018-02-19T08:43:16.478Z,8464.00
2018-02-19T08:44:16.491Z,8236.00
2018-02-19T08:45:16.506Z,8080.00
2018-02-19T08:46:16.518Z,7984.00
2018-02-19T08:47:16.535Z,7916.00
2018-02-19T08:48:16.549Z,7824.00
2018-02-19T08:49:16.560Z,7756.00
2018-02-19T08:50:16.572Z,7656.00
2018-02-19T08:51:16.589Z,7540.00
2018-02-19T08:52:16.601Z,7468.00
2018-02-19T08:53:16.614Z,7424.00
2018-02-19T08:54:16.626Z,7368.00
2018-02-19T08:55:16.640Z,7328.00
2018-02-19T08:56:16.655Z,7348.00
2018-02-19T08:57:16.667Z,7360.00
2018-02-19T08:58:16.680Z,7324.00
2018-02-19T08:59:16.696Z,7216.00
2018-02-19T09:00:16.714Z,7052.00
2018-02-19T09:01:16.721Z,6908.00
2018-02-19T09:02:16.732Z,6784.00
2018-02-19T09:03:16.749Z,6640.00
2018-02-19T09:04:16.764Z,6484.00
2018-02-19T09:05:16.773Z,6384.00
2018-02-19T09:06:16.791Z,6348.00
2018-02-19T09:07:16.805Z,6344.00
2018-02-19T09:08:16.817Z,6360.00
2018-02-19T09:09:16.833Z,6388.00
2018-02-19T09:10:16.845Z,6436.00
2018-02-19T09:11:16.857Z,6512.00
2018-02-19T09:12:16.872Z,6632.00
2018-02-19T09:13:16.883Z,6800.00
2018-02-19T09:14:16.898Z,7000.00
2018-02-19T09:15:16.911Z,7228.00
2018-02-19T09:16:16.927Z,7448.00
2018-02-19T09:17:16.942Z,7636.00
2018-02-19T09:18:16.955Z,7792.00
2018-02-19T09:19:16.968Z,7908.00
2018-02-19T09:20:16.980Z,7980.00
2018-02-19T09:21:16.994Z,8024.00
2018-02-19T09:22:17.006Z,8064.00
2018-02-19T09:23:17.022Z,8100.00
2018-02-19T09:24:17.035Z,8144.00
2018-02-19T09:25:17.049Z,8204.00
2018-02-19T09:26:17.078Z,8268.00
2018-02-19T09:27:17.077Z,8348.00
2018-02-19T09:28:17.088Z,8404.00
2018-02-19T09:29:17.103Z,8444.00
2018-02-19T09:30:17.118Z,8460.00
2018-02-19T09:31:17.130Z,8484.00
2018-02-19T09:32:17.144Z,8536.00
2018-02-19T09:33:17.157Z,8624.00
2018-02-19T09:34:17.173Z,8748.00
2018-02-19T09:35:17.191Z,8888.00
2018-02-19T09:36:17.201Z,9028.00
2018-02-19T09:37:17.212Z,9144.00
2018-02-19T09:38:17.230Z,9248.00
2018-02-19T09:39:17.248Z,9324.00
2018-02-19T09:40:17.260Z,9404.00
2018-02-19T09:41:17.271Z,9488.00
2018-02-19T09:42:17.295Z,9632.00
2018-02-19T09:43:17.301Z,9804.00
2018-02-19T09:44:17.316Z,10012.00
2018-02-19T09:45:17.327Z,10232.00
2018-02-19T09:46:17.340Z,10428.00
2018-02-19T09:47:17.359Z,10604.00
2018-02-19T09:48:17.369Z,10760.00
2018-02-19T09:49:17.387Z,10896.00
2018-02-19T09:50:17.401Z,11032.00
2018-02-19T09:51:17.412Z,11140.00
2018-02-19T09:52:17.431Z,11208.00
2018-02-19T09:53:17.440Z,11244.00
2018-02-19T09:54:17.454Z,11280.00
2018-02-19T09:55:17.469Z,11284.00
2018-02-19T09:56:17.489Z,11324.00
2018-02-19T09:57:17.500Z,11384.00
2018-02-19T09:58:17.513Z,11408.00
2018-02-19T09:59:17.531Z,11412.00
2018-02-19T10:00:17.547Z,11380.00
2018-02-19T10:01:17.564Z,11340.00
2018-02-19T10:02:17.574Z,11292.00
2018-02-19T10:03:17.590Z,11268.00
2018-02-19T10:04:17.603Z,11260.00
2018-02-19T10:05:17.617Z,11296.00
2018-02-19T10:06:17.632Z,11348.00
2018-02-19T10:07:17.648Z,11436.00
2018-02-19T10:08:17.659Z,11524.00
2018-02-19T10:09:17.678Z,11592.00
2018-02-19T10:10:17.738Z,11700.00
2018-02-19T10:11:17.710Z,11764.00
2018-02-19T10:12:17.724Z,11780.00
2018-02-19T10:13:17.735Z,11788.00
2018-02-19T10:14:17.748Z,11720.00
2018-02-19T10:15:17.766Z,11688.00
2018-02-19T10:16:17.783Z,11692.00
2018-02-19T10:17:17.793Z,11688.00
2018-02-19T10:18:17.811Z,11676.00
2018-02-19T10:19:17.825Z,11668.00
2018-02-19T10:20:17.839Z,11656.00
2018-02-19T10:21:17.857Z,11632.00
2018-02-19T10:22:17.866Z,11612.00
2018-02-19T10:23:17.882Z,11552.00
2018-02-19T10:24:17.943Z,11496.00
2018-02-19T10:25:17.919Z,11456.00
2018-02-19T10:26:17.934Z,11392.00
2018-02-19T10:27:17.940Z,11304.00
2018-02-19T10:28:17.956Z,11204.00
2018-02-19T10:29:17.971Z,11056.00
2018-02-19T10:30:18.010Z,10864.00
2018-02-19T10:31:18.000Z,10616.00
2018-02-19T10:32:18.015Z,10364.00
2018-02-19T10:33:18.030Z,10052.00
2018-02-19T10:34:18.047Z,9724.00
2018-02-19T10:35:18.058Z,9416.00
2018-02-19T10:36:18.077Z,9144.00
2018-02-19T10:37:18.095Z,8916.00
2018-02-19T10:38:18.105Z,8700.00
2018-02-19T10:39:18.118Z,8496.00
2018-02-19T10:40:18.132Z,8324.00
2018-02-19T10:41:18.144Z,8204.00
2018-02-19T10:42:18.162Z,8128.00
2018-02-19T10:43:18.176Z,8044.00
2018-02-19T10:44:18.191Z,8012.00
2018-02-19T10:45:18.204Z,8068.00
2018-02-19T10:46:18.221Z,8180.00
2018-02-19T10:47:18.234Z,8160.00
2018-02-19T10:48:18.250Z,8200.00
2018-02-19T10:49:18.263Z,8360.00
2018-02-19T10:50:18.279Z,8556.00
2018-02-19T10:51:18.293Z,8568.00
2018-02-19T10:52:18.304Z,9064.00
2018-02-19T10:53:18.319Z,9348.00
2018-02-19T10:54:18.336Z,9492.00
2018-02-19T10:55:18.350Z,9492.00
2018-02-19T10:56:18.366Z,9304.00
2018-02-19T10:57:18.377Z,8660.00
2018-02-19T10:58:18.395Z,8088.00
2018-02-19T10:59:18.408Z,7772.00
2018-02-19T11:00:18.421Z,7620.00
2018-02-19T11:01:18.441Z,7504.00
2018-02-19T11:02:18.457Z,7404.00
2018-02-19T11:03:18.467Z,7300.00
2018-02-19T11:04:18.479Z,7216.00
2018-02-19T11:05:18.495Z,7144.00
2018-02-19T11:06:18.509Z,7088.00
2018-02-19T11:07:18.528Z,7060.00
2018-02-19T11:08:18.541Z,7088.00
2018-02-19T11:09:18.567Z,7156.00
2018-02-19T11:10:18.567Z,7260.00
2018-02-19T11:11:18.580Z,7308.00
2018-02-19T11:12:18.594Z,7568.00
2018-02-19T11:13:18.624Z,7360.00
2018-02-19T11:14:18.622Z,7588.00
2018-02-19T11:15:18.636Z,7660.00
2018-02-19T11:16:18.650Z,7928.00
2018-02-19T11:17:18.666Z,8100.00
2018-02-19T11:18:18.681Z,8332.00
2018-02-19T11:19:18.692Z,8508.00
2018-02-19T11:20:18.706Z,8600.00
2018-02-19T11:21:18.722Z,8772.00
2018-02-19T11:22:18.736Z,8904.00
2018-02-19T11:23:18.750Z,9040.00
2018-02-19T11:24:18.812Z,9276.00
2018-02-19T11:25:18.777Z,9508.00
2018-02-19T11:26:18.792Z,9540.00
2018-02-19T11:27:18.820Z,9680.00
2018-02-19T11:28:18.823Z,9440.00
2018-02-19T11:29:18.834Z,9912.00
2018-02-19T11:30:18.851Z,10176.00
2018-02-19T11:31:18.863Z,10416.00
2018-02-19T11:32:18.877Z,10496.00
2018-02-19T11:33:18.890Z,10580.00
2018-02-19T11:34:18.908Z,10644.00
2018-02-19T11:35:18.925Z,11000.00
2018-02-19T11:36:18.934Z,11168.00
2018-02-19T11:37:18.963Z,11316.00
2018-02-19T11:38:18.964Z,11424.00
2018-02-19T11:39:18.981Z,11388.00
2018-02-19T11:40:19.000Z,10936.00
2018-02-19T11:41:19.009Z,10904.00
2018-02-19T11:42:19.026Z,11120.00
2018-02-19T11:43:19.039Z,11160.00
2018-02-19T11:44:19.055Z,11076.00
2018-02-19T11:45:19.071Z,11064.00
2018-02-19T11:46:19.081Z,11064.00
2018-02-19T11:47:19.098Z,11068.00
2018-02-19T11:48:19.113Z,11080.00
2018-02-19T11:49:19.132Z,11052.00
2018-02-19T11:50:19.145Z,10996.00
2018-02-19T11:51:19.163Z,10832.00
2018-02-19T11:52:19.178Z,10596.00
2018-02-19T11:53:19.191Z,10420.00
2018-02-19T11:54:19.206Z,10296.00
2018-02-19T11:55:19.221Z,10208.00
2018-02-19T11:56:19.236Z,10152.00
2018-02-19T11:57:19.253Z,10104.00
2018-02-19T11:58:19.268Z,10064.00
2018-02-19T11:59:19.282Z,9976.00
2018-02-19T12:00:19.296Z,9924.00
2018-02-19T12:01:19.308Z,9832.00
2018-02-19T12:02:19.324Z,9768.00
2018-02-19T12:03:19.344Z,9644.00
2018-02-19T12:04:19.361Z,9468.00
2018-02-19T12:05:19.372Z,9352.00
2018-02-19T12:06:19.388Z,9256.00
2018-02-19T12:07:19.400Z,9084.00
2018-02-19T12:08:19.422Z,8720.00
2018-02-19T12:09:19.430Z,8240.00
2018-02-19T12:10:19.446Z,7924.00
2018-02-19T12:11:19.461Z,7720.00
2018-02-19T12:12:19.477Z,7640.00
2018-02-19T12:13:19.490Z,7348.00
2018-02-19T12:14:19.509Z,7052.00
2018-02-19T12:15:19.523Z,6892.00
2018-02-19T12:16:19.538Z,6716.00
2018-02-19T12:17:19.549Z,6696.00
2018-02-19T12:18:19.565Z,6888.00
2018-02-19T12:19:19.587Z,6940.00
2018-02-19T12:20:19.599Z,7008.00
2018-02-19T12:21:19.616Z,7208.00
2018-02-19T12:22:19.623Z,7360.00
2018-02-19T12:23:19.644Z,7384.00
2018-02-19T12:24:19.659Z,7452.00
2018-02-19T12:25:19.669Z,7496.00
2018-02-19T12:26:19.686Z,7408.00
2018-02-19T12:27:19.700Z,7232.00
2018-02-19T12:28:19.713Z,7152.00
2018-02-19T12:29:19.727Z,7136.00
2018-02-19T12:30:19.739Z,7272.00
2018-02-19T12:31:19.757Z,7380.00
2018-02-19T12:32:19.770Z,7416.00
2018-02-19T12:33:19.784Z,7408.00
2018-02-19T12:34:19.799Z,7408.00
2018-02-19T12:35:19.823Z,7416.00
2018-02-19T12:36:19.829Z,7464.00
2018-02-19T12:37:19.850Z,7468.00
2018-02-19T12:38:19.858Z,7432.00